Time;durP1;ratioP1;P1;durP2;ratioP2;P2;SDS_P1;SDS_P2;PMS_P1;PMS_P2;Temp;Humidity;BMP_temperature;BMP_pressure;BME280_temperature;BME280_humidity;BME280_pressure;Samples;Min_cycle;Max_cycle;Signal;HPM_P1;HPM_P2
2024/02/22 00:01:22;;;;;;;4.35;1.15;;;8.40;99.90;;;;;;5035874;28;20182;-86
2024/02/22 00:03:48;;;;;;;3.37;1.23;;;8.40;99.90;;;;;;5026101;28;20217;-85
2024/02/22 00:06:14;;;;;;;2.63;1.10;;;8.40;99.90;;;;;;5026260;28;20182;-86
2024/02/22 00:08:41;;;;;;;4.80;1.20;;;8.40;99.90;;;;;;5026703;28;20257;-86
2024/02/22 00:11:07;;;;;;;3.93;1.33;;;8.50;99.90;;;;;;5027217;28;20185;-85
2024/02/22 00:13:34;;;;;;;4.10;1.33;;;8.50;99.90;;;;;;5034501;28;20178;-87
2024/02/22 00:16:03;;;;;;;4.60;1.40;;;8.50;99.90;;;;;;5027572;28;20613;-84
2024/02/22 00:18:30;;;;;;;3.83;1.60;;;8.50;99.90;;;;;;5034355;28;20182;-85
2024/02/22 00:20:55;;;;;;;3.55;1.42;;;8.50;99.90;;;;;;5027498;28;20194;-85
2024/02/22 00:23:21;;;;;;;4.75;1.70;;;8.50;99.90;;;;;;5025454;28;20617;-86
2024/02/22 00:25:47;;;;;;;3.92;1.50;;;8.40;99.90;;;;;;5034029;28;20217;-87
2024/02/22 00:28:13;;;;;;;5.87;1.60;;;8.40;99.90;;;;;;5027273;28;20209;-87
2024/02/22 00:30:38;;;;;;;4.43;1.65;;;8.40;99.90;;;;;;5033804;28;20253;-85
2024/02/22 00:33:04;;;;;;;2.40;1.27;;;8.30;99.90;;;;;;5026286;28;20268;-83
2024/02/22 00:35:30;;;;;;;7.77;1.60;;;8.30;99.90;;;;;;5026764;28;20175;-86
2024/02/22 00:37:57;;;;;;;6.03;1.97;;;8.30;99.90;;;;;;5034273;28;20228;-87
2024/02/22 00:40:25;;;;;;;5.13;2.00;;;8.30;99.90;;;;;;5025653;28;20637;-87
2024/02/22 00:42:50;;;;;;;2.08;1.20;;;8.40;99.90;;;;;;5025788;28;20618;-85
2024/02/22 00:45:16;;;;;;;4.37;1.70;;;8.30;99.90;;;;;;5021463;28;20207;-84
2024/02/22 00:47:42;;;;;;;4.00;1.93;;;8.30;99.90;;;;;;5022435;28;20185;-87
2024/02/22 00:50:08;;;;;;;3.47;1.80;;;8.30;99.90;;;;;;5021341;28;20187;-85
2024/02/22 00:52:34;;;;;;;4.00;1.70;;;8.30;99.90;;;;;;5029748;28;20183;-84
2024/02/22 00:55:00;;;;;;;3.63;1.83;;;8.30;99.90;;;;;;5019151;28;20240;-85
2024/02/22 00:57:25;;;;;;;7.13;1.83;;;8.30;99.90;;;;;;5033647;28;20547;-86
2024/02/22 00:59:51;;;;;;;4.43;1.77;;;8.30;99.90;;;;;;5026542;28;20183;-85
2024/02/22 01:02:17;;;;;;;4.50;1.87;;;8.20;99.90;;;;;;5029282;28;20209;-86
2024/02/22 01:04:43;;;;;;;5.43;1.47;;;8.20;99.90;;;;;;5023342;28;20206;-84
2024/02/22 01:07:08;;;;;;;6.13;1.80;;;8.20;99.90;;;;;;5023287;28;20218;-86
2024/02/22 01:09:36;;;;;;;3.30;1.57;;;8.20;99.90;;;;;;5013878;28;20191;-86
2024/02/22 01:12:03;;;;;;;3.73;1.60;;;8.20;99.90;;;;;;5025547;28;20633;-83
2024/02/22 01:14:29;;;;;;;3.00;1.57;;;8.10;99.90;;;;;;5033507;28;20182;-85
2024/02/22 01:16:56;;;;;;;6.93;2.07;;;8.20;99.90;;;;;;5033725;28;20178;-87
2024/02/22 01:19:22;;;;;;;4.72;1.73;;;8.10;99.90;;;;;;5033072;28;20205;-85
2024/02/22 01:21:48;;;;;;;4.00;1.93;;;8.10;99.90;;;;;;5023868;28;20179;-86
2024/02/22 01:24:13;;;;;;;4.20;1.70;;;8.10;99.90;;;;;;5027830;28;20535;-84
2024/02/22 01:26:39;;;;;;;3.47;1.87;;;8.10;99.90;;;;;;5033140;28;20185;-84
2024/02/22 01:29:05;;;;;;;5.20;1.77;;;8.10;99.90;;;;;;5440692;22;20268;-84
2024/02/22 01:31:31;;;;;;;6.13;2.00;;;8.10;99.90;;;;;;5048799;28;20190;-85
2024/02/22 01:33:57;;;;;;;4.50;1.60;;;8.20;99.90;;;;;;5052776;28;20202;-85
2024/02/22 01:36:23;;;;;;;2.17;1.40;;;8.10;99.90;;;;;;5053392;28;20193;-85
2024/02/22 01:38:48;;;;;;;2.80;1.47;;;8.10;99.90;;;;;;5053371;28;20297;-86
2024/02/22 01:41:15;;;;;;;4.33;1.57;;;8.20;99.90;;;;;;5053201;28;20190;-84
2024/02/22 01:43:41;;;;;;;2.03;1.30;;;8.10;99.90;;;;;;5053105;28;20248;-87
2024/02/22 01:46:08;;;;;;;5.00;1.90;;;8.10;99.90;;;;;;5052840;28;20194;-86
2024/02/22 01:48:33;;;;;;;2.47;1.40;;;8.10;99.90;;;;;;5054506;28;20189;-87
2024/02/22 01:51:16;;;;;;;3.35;1.48;;;8.10;99.90;;;;;;5054172;28;20182;-87
2024/02/22 01:53:43;;;;;;;1.80;1.30;;;8.10;99.90;;;;;;5052905;28;20217;-85
2024/02/22 01:56:10;;;;;;;4.23;1.53;;;8.00;99.90;;;;;;5053200;28;20276;-87
2024/02/22 01:58:38;;;;;;;3.20;1.30;;;8.00;99.90;;;;;;5056891;28;20612;-85
2024/02/22 02:01:12;;;;;;;2.50;1.30;;;8.00;99.90;;;;;;5048281;28;20616;-86
2024/02/22 02:03:39;;;;;;;4.30;1.40;;;8.00;99.90;;;;;;5056676;28;20552;-87
2024/02/22 02:06:05;;;;;;;4.87;1.67;;;8.00;99.90;;;;;;5056995;28;20201;-87
2024/02/22 02:08:38;;;;;;;5.37;1.33;;;8.00;99.90;;;;;;5056648;28;20281;-87
2024/02/22 02:11:04;;;;;;;1.67;1.10;;;8.00;99.90;;;;;;5057939;28;20173;-87
2024/02/22 02:13:30;;;;;;;2.43;1.23;;;8.00;99.90;;;;;;5056550;28;20182;-86
2024/02/22 02:15:57;;;;;;;3.28;1.40;;;8.00;99.90;;;;;;5057412;28;20186;-88
2024/02/22 02:18:22;;;;;;;2.07;1.20;;;8.00;99.90;;;;;;5056492;28;20538;-86
2024/02/22 02:20:52;;;;;;;2.73;1.30;;;8.00;99.90;;;;;;5056362;28;20212;-87
2024/02/22 02:23:42;;;;;;;2.03;1.17;;;8.10;99.90;;;;;;5056284;28;20957;-88
2024/02/22 02:26:09;;;;;;;4.27;1.50;;;8.10;99.90;;;;;;5056444;28;20529;-88
2024/02/22 02:28:34;;;;;;;2.70;1.33;;;8.00;99.90;;;;;;5056089;28;20525;-86
2024/02/22 02:31:06;;;;;;;2.03;1.40;;;8.00;99.90;;;;;;5055906;28;20285;-84
2024/02/22 02:33:32;;;;;;;2.35;1.40;;;8.00;99.90;;;;;;5056201;28;20532;-88
2024/02/22 02:35:58;;;;;;;6.10;1.53;;;8.00;99.90;;;;;;5056299;28;20194;-87
2024/02/22 02:38:24;;;;;;;4.17;1.40;;;8.00;99.90;;;;;;5056490;28;20654;-88
2024/02/22 02:40:52;;;;;;;3.20;1.20;;;8.00;99.90;;;;;;5056659;28;20209;-88
2024/02/22 02:43:18;;;;;;;2.37;1.50;;;8.00;99.90;;;;;;5056868;28;20625;-88
2024/02/22 02:45:44;;;;;;;3.87;1.67;;;7.90;99.90;;;;;;5055446;28;20216;-86
2024/02/22 02:48:10;;;;;;;2.83;1.50;;;7.90;99.90;;;;;;5055487;28;20384;-87
2024/02/22 02:50:37;;;;;;;2.17;1.67;;;7.90;99.90;;;;;;5056971;28;20268;-88
2024/02/22 02:53:03;;;;;;;2.87;1.80;;;7.90;99.90;;;;;;5048062;28;20194;-89
2024/02/22 02:55:28;;;;;;;3.90;2.17;;;7.90;99.90;;;;;;5056299;28;20510;-89
2024/02/22 02:57:54;;;;;;;3.73;1.87;;;7.90;99.90;;;;;;5057200;28;20272;-87
2024/02/22 03:00:20;;;;;;;4.03;2.10;;;7.80;99.90;;;;;;5055903;28;20527;-89
2024/02/22 03:02:48;;;;;;;3.13;1.97;;;7.80;99.90;;;;;;5054600;28;20249;-88
2024/02/22 03:05:13;;;;;;;7.60;2.07;;;7.90;99.90;;;;;;5055717;28;20606;-87
2024/02/22 03:07:41;;;;;;;3.80;1.80;;;7.80;99.90;;;;;;5055958;28;20186;-86
2024/02/22 03:10:07;;;;;;;4.20;2.37;;;7.80;99.90;;;;;;5055409;28;20281;-87
2024/02/22 03:12:35;;;;;;;4.80;2.42;;;7.90;99.90;;;;;;5055636;28;20190;-87
2024/02/22 03:15:01;;;;;;;3.90;2.10;;;7.90;99.90;;;;;;5056687;28;20612;-86
2024/02/22 03:17:27;;;;;;;2.70;1.95;;;7.80;99.90;;;;;;5056781;28;20197;-86
2024/02/22 03:19:52;;;;;;;5.53;2.47;;;7.80;99.90;;;;;;5057051;28;20200;-88
2024/02/22 03:22:20;;;;;;;7.30;2.70;;;7.90;99.90;;;;;;5055931;28;20556;-88
2024/02/22 03:24:46;;;;;;;4.20;2.53;;;7.90;99.90;;;;;;5056892;28;20306;-88
2024/02/22 03:27:12;;;;;;;5.50;2.97;;;7.90;99.90;;;;;;5056773;28;20583;-88
2024/02/22 03:29:41;;;;;;;3.60;2.03;;;7.80;99.90;;;;;;5056227;28;20235;-88
2024/02/22 03:32:09;;;;;;;5.87;2.30;;;7.90;99.90;;;;;;5047397;28;20192;-89
2024/02/22 03:34:36;;;;;;;6.90;2.33;;;7.90;99.90;;;;;;5055211;28;20189;-88
2024/02/22 03:37:02;;;;;;;6.25;2.60;;;7.80;99.90;;;;;;5055335;28;20186;-88
2024/02/22 03:39:28;;;;;;;5.97;3.37;;;7.80;99.90;;;;;;5055319;28;20284;-86
2024/02/22 03:41:55;;;;;;;5.97;3.10;;;7.80;99.90;;;;;;5055265;28;20277;-86
2024/02/22 03:44:20;;;;;;;9.38;4.00;;;7.80;99.90;;;;;;5055078;28;20232;-86
2024/02/22 03:46:51;;;;;;;6.10;3.43;;;7.80;99.90;;;;;;5055211;28;20612;-87
2024/02/22 03:49:17;;;;;;;6.70;2.80;;;7.90;99.90;;;;;;5055094;28;20185;-88
2024/02/22 03:51:45;;;;;;;3.73;2.33;;;7.80;99.90;;;;;;5054787;28;20204;-86
2024/02/22 03:54:11;;;;;;;3.57;2.43;;;7.80;99.90;;;;;;5055072;28;20190;-87
2024/02/22 03:56:37;;;;;;;4.57;2.03;;;7.80;99.90;;;;;;5055022;28;20288;-88
2024/02/22 03:59:03;;;;;;;5.83;2.20;;;7.90;99.90;;;;;;5054715;28;20304;-86
2024/02/22 04:01:33;;;;;;;3.77;2.30;;;7.90;99.90;;;;;;5055646;28;20197;-85
2024/02/22 04:03:58;;;;;;;4.73;2.07;;;7.80;99.90;;;;;;5054469;28;20283;-89
2024/02/22 04:06:24;;;;;;;3.00;2.07;;;7.80;99.90;;;;;;5054895;28;20193;-88
2024/02/22 04:08:51;;;;;;;3.72;2.22;;;7.80;99.90;;;;;;5054751;28;20620;-89
2024/02/22 04:11:17;;;;;;;3.90;2.03;;;7.80;99.90;;;;;;5054650;28;20192;-89
2024/02/22 04:13:45;;;;;;;4.05;2.05;;;7.80;99.90;;;;;;5054699;28;20614;-86
2024/02/22 04:16:11;;;;;;;2.00;1.63;;;7.80;99.90;;;;;;5054161;28;20203;-86
2024/02/22 04:18:37;;;;;;;3.57;1.80;;;7.80;99.90;;;;;;5053516;28;20189;-88
2024/02/22 04:21:03;;;;;;;2.30;1.55;;;7.80;99.90;;;;;;5054434;28;20609;-88
2024/02/22 04:23:31;;;;;;;5.47;2.13;;;7.90;99.90;;;;;;5055346;28;20264;-88
2024/02/22 04:25:57;;;;;;;5.30;2.30;;;7.90;99.90;;;;;;5054311;28;20190;-89
2024/02/22 04:28:24;;;;;;;3.80;1.87;;;7.90;99.90;;;;;;5054416;28;20208;-88
2024/02/22 04:30:50;;;;;;;2.20;1.63;;;7.80;99.90;;;;;;5054072;28;20628;-87
2024/02/22 04:33:17;;;;;;;2.10;1.70;;;7.90;99.90;;;;;;5053714;28;20212;-86
2024/02/22 04:35:45;;;;;;;2.93;1.80;;;7.90;99.90;;;;;;5054115;28;20277;-88
2024/02/22 04:38:11;;;;;;;5.20;1.90;;;7.80;99.90;;;;;;5054054;28;20190;-87
2024/02/22 04:40:38;;;;;;;2.90;1.80;;;7.90;99.90;;;;;;5055220;28;20185;-87
2024/02/22 04:43:05;;;;;;;2.73;1.70;;;7.90;99.90;;;;;;5054229;28;20213;-85
2024/02/22 04:45:33;;;;;;;2.13;1.50;;;7.80;99.90;;;;;;5054179;28;20648;-89
2024/02/22 04:48:03;;;;;;;3.85;1.85;;;7.90;99.90;;;;;;5053952;28;20194;-87
2024/02/22 04:50:35;;;;;;;2.97;1.60;;;7.90;99.90;;;;;;5053590;28;20272;-89
2024/02/22 04:53:08;;;;;;;4.73;1.93;;;7.90;99.90;;;;;;5053804;28;20182;-87
2024/02/22 04:55:34;;;;;;;3.27;1.67;;;7.80;99.90;;;;;;5054027;28;20177;-88
2024/02/22 04:58:02;;;;;;;3.63;2.13;;;7.80;99.90;;;;;;5055260;28;20191;-88
2024/02/22 05:00:29;;;;;;;7.10;2.03;;;7.80;99.90;;;;;;5053807;28;20265;-88
2024/02/22 05:02:55;;;;;;;4.00;2.10;;;7.90;99.90;;;;;;5055050;28;20185;-88
2024/02/22 05:05:20;;;;;;;4.17;2.23;;;7.90;99.90;;;;;;5053390;28;20213;-88
2024/02/22 05:07:46;;;;;;;4.55;2.08;;;7.90;99.90;;;;;;5054855;28;20185;-88
2024/02/22 05:10:12;;;;;;;5.50;2.50;;;7.90;99.90;;;;;;5054909;28;20216;-90
2024/02/22 05:12:45;;;;;;;3.23;1.90;;;7.90;99.90;;;;;;5053750;28;20566;-88
2024/02/22 05:15:11;;;;;;;5.82;2.33;;;7.90;99.90;;;;;;5053762;28;20636;-85
2024/02/22 05:17:40;;;;;;;3.97;2.30;;;7.90;99.90;;;;;;5054780;28;20189;-88
2024/02/22 05:20:07;;;;;;;4.97;2.23;;;8.00;99.90;;;;;;5053288;28;20196;-86
2024/02/22 05:22:33;;;;;;;4.23;2.33;;;7.90;99.90;;;;;;5053804;28;20276;-87
2024/02/22 05:24:59;;;;;;;3.57;1.80;;;8.00;99.90;;;;;;5053278;28;20308;-87
2024/02/22 05:27:24;;;;;;;6.20;2.43;;;8.00;99.90;;;;;;5054850;28;20212;-85
2024/02/22 05:29:50;;;;;;;4.67;2.33;;;8.00;99.90;;;;;;5053387;28;20292;-86
2024/02/22 05:32:16;;;;;;;2.90;1.80;;;8.00;99.90;;;;;;5054087;28;20293;-87
2024/02/22 05:34:45;;;;;;;4.00;2.15;;;8.00;99.90;;;;;;5057059;28;20196;-88
2024/02/22 05:37:11;;;;;;;2.07;1.43;;;8.00;99.90;;;;;;5058708;28;20182;-86
2024/02/22 05:39:37;;;;;;;6.13;1.90;;;8.00;99.90;;;;;;5057620;28;20193;-87
2024/02/22 05:42:03;;;;;;;3.67;1.53;;;8.00;99.90;;;;;;5057528;28;20194;-88
2024/02/22 05:44:31;;;;;;;5.03;1.40;;;7.90;99.90;;;;;;5057406;28;20221;-88
2024/02/22 05:46:57;;;;;;;3.60;1.40;;;8.00;99.90;;;;;;5057443;28;20197;-86
2024/02/22 05:49:23;;;;;;;2.03;1.27;;;8.00;99.90;;;;;;5057148;28;20189;-89
2024/02/22 05:51:49;;;;;;;2.30;1.40;;;7.90;99.90;;;;;;5057032;28;20675;-87
2024/02/22 05:54:23;;;;;;;1.73;1.10;;;7.90;99.90;;;;;;5057276;28;20523;-89
2024/02/22 05:56:52;;;;;;;0.87;0.80;;;8.00;99.90;;;;;;5058289;28;20278;-85
2024/02/22 05:59:17;;;;;;;1.25;0.98;;;8.00;99.90;;;;;;5056874;28;20192;-86
2024/02/22 06:01:43;;;;;;;3.93;0.90;;;8.00;99.90;;;;;;5057999;28;20186;-89
2024/02/22 06:04:11;;;;;;;2.20;0.90;;;8.00;99.90;;;;;;5056625;28;20217;-87
2024/02/22 06:06:38;;;;;;;1.63;0.90;;;8.00;99.90;;;;;;5056935;28;20190;-87
2024/02/22 06:09:04;;;;;;;1.65;0.75;;;8.00;99.90;;;;;;5057001;28;20185;-87
2024/02/22 06:11:32;;;;;;;1.77;0.70;;;8.00;99.90;;;;;;5056756;28;20596;-90
2024/02/22 06:14:04;;;;;;;1.80;0.70;;;7.90;99.90;;;;;;5056838;28;20697;-86
2024/02/22 06:16:30;;;;;;;1.00;0.80;;;8.00;99.90;;;;;;5056607;28;20630;-86
2024/02/22 06:18:56;;;;;;;2.13;0.80;;;8.00;99.90;;;;;;5055505;28;20280;-86
2024/02/22 06:21:21;;;;;;;2.80;0.90;;;8.00;99.90;;;;;;5055030;28;20525;-89
2024/02/22 06:23:47;;;;;;;1.63;0.70;;;8.00;99.90;;;;;;5055531;28;20212;-84
2024/02/22 06:26:14;;;;;;;2.63;0.70;;;8.00;99.90;;;;;;5056157;28;20190;-89
2024/02/22 06:28:39;;;;;;;0.90;0.60;;;8.00;99.90;;;;;;5055829;28;20185;-86
2024/02/22 06:31:05;;;;;;;0.98;0.80;;;8.00;99.90;;;;;;5056067;28;20251;-85
2024/02/22 06:33:39;;;;;;;0.70;0.60;;;8.00;99.90;;;;;;5056785;28;20192;-86
2024/02/22 06:36:09;;;;;;;1.20;0.70;;;8.00;99.90;;;;;;5056739;28;20189;-86
2024/02/22 06:38:39;;;;;;;0.60;0.60;;;8.00;99.90;;;;;;5057674;28;20235;-88
2024/02/22 06:41:05;;;;;;;1.10;0.57;;;8.10;99.90;;;;;;5056305;28;20253;-86
2024/02/22 06:43:37;;;;;;;1.10;0.60;;;8.00;99.90;;;;;;5055653;28;20255;-87
2024/02/22 06:46:03;;;;;;;1.30;0.70;;;8.00;99.90;;;;;;5055801;28;20189;-86
2024/02/22 06:48:29;;;;;;;0.65;0.50;;;8.00;99.90;;;;;;5056310;28;20225;-87
2024/02/22 06:50:56;;;;;;;0.67;0.60;;;8.00;99.90;;;;;;5055935;28;20212;-88
2024/02/22 06:53:22;;;;;;;1.00;0.50;;;8.00;99.90;;;;;;5056157;28;20185;-88
2024/02/22 06:55:49;;;;;;;2.43;0.50;;;8.00;99.90;;;;;;5055959;28;20690;-87
2024/02/22 06:58:14;;;;;;;1.03;0.50;;;8.00;99.90;;;;;;5055966;28;20189;-86
2024/02/22 07:00:40;;;;;;;0.70;0.50;;;8.10;99.90;;;;;;5055945;28;20182;-88
2024/02/22 07:03:06;;;;;;;0.70;0.60;;;8.10;99.90;;;;;;5055835;28;20197;-86
2024/02/22 07:05:45;;;;;;;0.73;0.60;;;8.10;99.90;;;;;;5055688;28;20221;-87
2024/02/22 07:08:11;;;;;;;0.63;0.50;;;8.10;99.90;;;;;;5056057;28;20192;-88
2024/02/22 07:10:36;;;;;;;2.17;0.70;;;8.20;99.90;;;;;;5055887;28;20189;-87
2024/02/22 07:13:02;;;;;;;1.23;0.63;;;8.10;99.90;;;;;;5055809;28;20192;-90
2024/02/22 07:15:30;;;;;;;0.87;0.50;;;8.10;99.90;;;;;;5057151;28;20280;-87
2024/02/22 07:17:56;;;;;;;1.00;0.60;;;8.10;99.90;;;;;;5055354;28;20596;-87
2024/02/22 07:20:22;;;;;;;0.67;0.57;;;8.10;99.90;;;;;;5055658;28;20221;-88
2024/02/22 07:22:48;;;;;;;0.70;0.60;;;8.20;99.90;;;;;;5055607;28;20193;-88
2024/02/22 07:25:20;;;;;;;1.30;0.67;;;8.20;99.90;;;;;;5055661;28;20660;-87
2024/02/22 07:27:46;;;;;;;0.90;0.60;;;8.20;99.90;;;;;;5055995;28;20499;-85
2024/02/22 07:30:15;;;;;;;2.67;0.75;;;8.10;99.90;;;;;;5055181;28;20233;-88
2024/02/22 07:32:41;;;;;;;0.83;0.60;;;8.20;99.90;;;;;;5055289;28;20272;-87
2024/02/22 07:35:08;;;;;;;2.50;0.67;;;8.10;99.90;;;;;;5055379;28;20632;-88
2024/02/22 07:37:34;;;;;;;1.10;0.60;;;8.20;99.90;;;;;;5056540;28;20193;-87
2024/02/22 07:40:00;;;;;;;1.13;0.63;;;8.20;99.90;;;;;;5055142;28;20190;-88
2024/02/22 07:42:26;;;;;;;1.00;0.70;;;8.20;99.90;;;;;;5052943;28;20186;-87
2024/02/22 07:44:53;;;;;;;1.33;0.80;;;8.20;99.90;;;;;;5053049;28;20229;-88
2024/02/22 07:47:19;;;;;;;0.80;0.60;;;8.20;99.90;;;;;;5047817;28;20191;-89
2024/02/22 07:49:45;;;;;;;1.03;0.70;;;8.20;99.90;;;;;;5053306;28;20194;-88
2024/02/22 07:52:10;;;;;;;1.00;0.50;;;8.20;99.90;;;;;;5045313;28;20188;-88
2024/02/22 07:54:38;;;;;;;2.70;0.60;;;8.30;99.90;;;;;;5051847;28;20185;-86
2024/02/22 07:57:04;;;;;;;1.90;0.83;;;8.30;99.90;;;;;;5050016;28;20633;-86
2024/02/22 07:59:30;;;;;;;0.80;0.53;;;8.30;99.90;;;;;;5050478;28;20194;-88
2024/02/22 08:01:56;;;;;;;2.07;0.73;;;8.30;99.90;;;;;;5052523;28;20212;-86
2024/02/22 08:04:23;;;;;;;0.80;0.60;;;8.30;99.90;;;;;;5050694;28;20210;-85
2024/02/22 08:06:50;;;;;;;0.68;0.60;;;8.30;99.90;;;;;;5049671;28;20277;-84
2024/02/22 08:09:16;;;;;;;0.70;0.70;;;8.30;99.90;;;;;;5049491;28;20208;-85
2024/02/22 08:11:41;;;;;;;1.75;0.80;;;8.30;99.90;;;;;;5032537;28;20688;-85
2024/02/22 08:14:08;;;;;;;1.63;0.70;;;8.30;99.90;;;;;;5048233;28;20239;-87
2024/02/22 08:16:33;;;;;;;1.17;0.80;;;8.30;99.90;;;;;;5049136;28;20235;-86
2024/02/22 08:18:59;;;;;;;1.00;0.80;;;8.30;99.90;;;;;;5046417;28;20561;-88
2024/02/22 08:21:25;;;;;;;2.05;0.70;;;8.40;99.90;;;;;;5048364;28;20190;-84
2024/02/22 08:23:55;;;;;;;0.70;0.65;;;8.40;99.90;;;;;;5049809;28;20210;-87
2024/02/22 08:26:21;;;;;;;2.08;0.68;;;8.40;99.90;;;;;;5046341;28;20620;-87
2024/02/22 08:28:47;;;;;;;1.33;0.70;;;8.40;99.90;;;;;;5051950;28;20174;-85
2024/02/22 08:31:13;;;;;;;1.08;0.80;;;8.40;99.90;;;;;;5050962;28;20194;-88
2024/02/22 08:33:39;;;;;;;1.02;0.82;;;8.50;99.90;;;;;;5049208;28;20174;-85
2024/02/22 08:36:06;;;;;;;0.80;0.70;;;8.50;99.90;;;;;;5051090;28;20196;-84
2024/02/22 08:38:31;;;;;;;1.17;0.73;;;8.60;99.90;;;;;;5049560;28;20169;-86
2024/02/22 08:40:57;;;;;;;3.00;0.88;;;8.50;99.90;;;;;;5048947;28;20638;-85
2024/02/22 08:43:23;;;;;;;1.73;1.00;;;8.60;99.90;;;;;;5048763;28;20726;-84
2024/02/22 08:45:51;;;;;;;0.73;0.73;;;8.60;99.90;;;;;;5048654;28;20253;-87
2024/02/22 08:48:17;;;;;;;0.80;0.80;;;8.60;99.90;;;;;;5050193;28;20193;-85
2024/02/22 08:50:43;;;;;;;1.97;0.83;;;8.60;99.90;;;;;;5049122;28;20182;-85
2024/02/22 08:53:15;;;;;;;2.13;0.60;;;8.70;99.90;;;;;;5050761;28;20660;-85
2024/02/22 08:55:42;;;;;;;1.00;0.75;;;8.70;99.90;;;;;;5050978;28;20196;-86
2024/02/22 08:58:07;;;;;;;1.30;0.80;;;8.70;99.90;;;;;;5052342;28;20753;-84
2024/02/22 09:00:33;;;;;;;0.63;0.60;;;8.80;99.90;;;;;;5049935;28;20185;-88
2024/02/22 09:02:59;;;;;;;1.58;0.85;;;8.80;99.90;;;;;;5050768;28;20190;-84
2024/02/22 09:05:26;;;;;;;0.80;0.77;;;8.80;99.90;;;;;;5047939;28;20216;-84
2024/02/22 09:07:52;;;;;;;2.13;0.95;;;8.80;99.90;;;;;;5032500;28;20527;-85
2024/02/22 09:10:18;;;;;;;0.77;0.70;;;8.90;99.90;;;;;;5049615;28;20185;-84
2024/02/22 09:12:44;;;;;;;0.70;0.60;;;9.00;99.90;;;;;;5034367;28;20190;-85
2024/02/22 09:15:11;;;;;;;0.82;0.80;;;9.00;99.90;;;;;;5050390;28;20190;-85
2024/02/22 09:17:37;;;;;;;0.80;0.60;;;9.00;99.90;;;;;;5050412;28;20182;-85
2024/02/22 09:20:04;;;;;;;0.90;0.60;;;9.00;99.90;;;;;;5049901;28;20213;-84
2024/02/22 09:22:30;;;;;;;1.38;1.00;;;9.10;99.90;;;;;;5047905;28;20182;-85
2024/02/22 09:24:57;;;;;;;1.65;0.90;;;9.10;99.90;;;;;;5047326;28;20206;-85
2024/02/22 09:27:22;;;;;;;1.00;0.80;;;9.10;99.90;;;;;;5047190;28;20210;-86
2024/02/22 09:29:48;;;;;;;3.15;0.80;;;9.10;99.90;;;;;;5040142;28;20262;-83
2024/02/22 09:32:14;;;;;;;2.22;0.95;;;9.20;99.90;;;;;;5041971;28;20704;-84
2024/02/22 09:34:41;;;;;;;0.90;0.80;;;9.30;99.90;;;;;;5044479;28;20194;-85
2024/02/22 09:37:07;;;;;;;4.33;1.23;;;9.30;99.90;;;;;;5048478;28;20535;-84
2024/02/22 09:39:35;;;;;;;1.45;0.80;;;9.40;99.90;;;;;;5045930;28;20221;-84
2024/02/22 09:42:01;;;;;;;1.92;0.90;;;9.50;99.90;;;;;;5050978;28;20189;-86
2024/02/22 09:44:28;;;;;;;0.90;0.80;;;9.50;99.90;;;;;;5046061;28;20237;-84
2024/02/22 09:46:55;;;;;;;1.08;0.88;;;9.60;99.90;;;;;;5047389;28;20186;-85
2024/02/22 09:49:21;;;;;;;1.38;0.70;;;9.70;99.90;;;;;;5048289;28;20182;-85
2024/02/22 09:51:51;;;;;;;0.68;0.68;;;9.70;99.90;;;;;;5049352;28;20236;-85
2024/02/22 09:54:21;;;;;;;1.67;0.70;;;9.80;99.90;;;;;;5045452;28;20197;-84
2024/02/22 09:56:53;;;;;;;0.88;0.68;;;9.80;99.90;;;;;;5048235;28;20181;-84
2024/02/22 09:59:19;;;;;;;0.80;0.60;;;9.70;99.90;;;;;;5050523;28;20182;-82
2024/02/22 10:01:45;;;;;;;1.58;0.65;;;9.80;99.90;;;;;;5048588;28;20186;-84
2024/02/22 10:04:13;;;;;;;0.85;0.70;;;9.80;99.90;;;;;;5047700;28;20214;-85
2024/02/22 10:06:41;;;;;;;1.85;0.77;;;9.80;99.90;;;;;;5047776;28;20190;-85
2024/02/22 10:09:06;;;;;;;2.25;0.52;;;9.90;99.90;;;;;;5048879;28;20238;-84
2024/02/22 10:11:32;;;;;;;0.93;0.60;;;9.90;99.90;;;;;;5046116;28;20190;-84
2024/02/22 10:14:01;;;;;;;0.90;0.50;;;9.90;99.90;;;;;;5049270;28;20186;-86
2024/02/22 10:16:29;;;;;;;3.22;0.80;;;9.90;99.90;;;;;;5046315;28;20194;-85
2024/02/22 10:19:01;;;;;;;1.08;0.70;;;9.90;99.90;;;;;;5047989;28;20179;-86
2024/02/22 10:21:28;;;;;;;1.55;0.70;;;9.90;99.90;;;;;;5048931;28;20181;-84
2024/02/22 10:23:55;;;;;;;1.60;0.75;;;9.90;99.90;;;;;;5052685;28;20206;-85
2024/02/22 10:26:21;;;;;;;2.83;0.60;;;10.00;99.90;;;;;;5049396;28;20193;-82
2024/02/22 10:28:58;;;;;;;1.38;0.50;;;10.10;99.90;;;;;;5055774;28;20177;-85
2024/02/22 10:31:24;;;;;;;0.95;0.65;;;10.10;99.90;;;;;;5049651;28;20280;-86
2024/02/22 10:33:52;;;;;;;1.02;0.93;;;10.00;99.90;;;;;;5050443;28;20300;-83
2024/02/22 10:36:19;;;;;;;0.52;0.47;;;10.10;99.90;;;;;;5050308;28;20260;-85
2024/02/22 10:38:46;;;;;;;1.08;0.57;;;10.10;99.90;;;;;;5053266;28;20182;-84
2024/02/22 10:41:14;;;;;;;0.50;0.43;;;10.10;99.90;;;;;;5049625;28;20200;-85
2024/02/22 10:43:43;;;;;;;0.50;0.50;;;10.20;99.90;;;;;;5051748;28;20297;-84
2024/02/22 10:46:12;;;;;;;1.83;0.60;;;10.20;99.90;;;;;;5053676;28;20220;-83
2024/02/22 10:48:44;;;;;;;1.10;0.40;;;10.20;99.90;;;;;;5055159;28;20273;-87
2024/02/22 10:51:11;;;;;;;0.40;0.40;;;10.20;99.90;;;;;;5053674;28;20193;-82
2024/02/22 10:53:39;;;;;;;0.50;0.50;;;10.20;99.90;;;;;;5049657;28;20186;-84
2024/02/22 10:56:06;;;;;;;0.70;0.50;;;10.30;99.90;;;;;;5050283;28;20178;-85
2024/02/22 10:58:37;;;;;;;1.65;0.47;;;10.30;99.90;;;;;;5052964;28;20186;-84
2024/02/22 11:01:06;;;;;;;1.08;0.40;;;10.30;99.90;;;;;;5050473;28;20229;-85
2024/02/22 11:03:34;;;;;;;1.35;0.50;;;10.30;99.90;;;;;;5049571;28;20280;-86
2024/02/22 11:06:03;;;;;;;0.95;0.40;;;10.40;99.90;;;;;;5047566;28;20583;-83
2024/02/22 11:08:32;;;;;;;1.15;0.55;;;10.40;99.90;;;;;;5052727;28;20328;-85
2024/02/22 11:11:10;;;;;;;0.60;0.45;;;10.50;99.90;;;;;;5045688;28;20186;-84
2024/02/22 11:13:39;;;;;;;0.50;0.50;;;10.50;99.90;;;;;;5051020;28;20612;-85
2024/02/22 11:16:19;;;;;;;1.65;0.30;;;10.70;99.90;;;;;;5051905;28;20186;-87
2024/02/22 11:18:46;;;;;;;1.42;0.60;;;10.80;99.90;;;;;;5052073;28;20190;-86
2024/02/22 11:21:12;;;;;;;0.68;0.47;;;10.90;99.90;;;;;;5053314;28;20186;-84
2024/02/22 11:23:39;;;;;;;0.88;0.47;;;11.00;99.90;;;;;;5054578;28;20182;-85
2024/02/22 11:26:11;;;;;;;0.45;0.40;;;11.10;99.90;;;;;;5047388;28;20235;-84
2024/02/22 11:28:37;;;;;;;0.80;0.60;;;11.20;99.90;;;;;;5049416;28;20186;-84
2024/02/22 11:31:14;;;;;;;2.22;0.60;;;11.10;99.90;;;;;;5051153;28;20758;-84
2024/02/22 11:33:40;;;;;;;0.80;0.60;;;11.30;99.90;;;;;;5047094;28;20302;-87
2024/02/22 11:36:06;;;;;;;0.90;0.70;;;11.30;99.90;;;;;;5051509;28;20255;-84
2024/02/22 11:38:32;;;;;;;1.35;0.52;;;11.40;99.90;;;;;;5051118;28;20265;-83
2024/02/22 11:41:05;;;;;;;0.73;0.60;;;11.40;99.90;;;;;;5050606;28;20186;-83
2024/02/22 11:43:31;;;;;;;1.33;0.60;;;11.50;99.90;;;;;;5053174;28;20185;-85
2024/02/22 11:46:02;;;;;;;0.60;0.50;;;11.40;99.90;;;;;;5051664;28;20226;-88
2024/02/22 11:48:28;;;;;;;0.50;0.47;;;11.50;99.90;;;;;;5048462;28;20170;-84
2024/02/22 11:50:54;;;;;;;0.90;0.60;;;11.60;99.90;;;;;;5048772;28;20260;-84
2024/02/22 11:53:20;;;;;;;0.95;0.50;;;11.80;99.90;;;;;;5052949;28;20646;-87
2024/02/22 11:55:52;;;;;;;2.00;0.65;;;12.00;99.90;;;;;;5051813;28;20604;-85
2024/02/22 11:58:20;;;;;;;1.27;0.70;;;12.10;99.90;;;;;;5050561;28;20217;-87
2024/02/22 12:00:46;;;;;;;1.20;0.70;;;12.00;99.90;;;;;;5051482;28;20316;-87
2024/02/22 12:03:13;;;;;;;1.33;0.50;;;11.80;99.90;;;;;;5051634;28;20268;-85
2024/02/22 12:05:39;;;;;;;2.45;1.10;;;11.70;99.90;;;;;;5051542;28;20750;-85
2024/02/22 12:08:06;;;;;;;4.35;0.95;;;11.70;99.90;;;;;;5052383;28;20602;-83
2024/02/22 12:10:32;;;;;;;3.10;1.20;;;11.70;99.90;;;;;;5048036;28;20203;-86
2024/02/22 12:12:58;;;;;;;2.70;0.85;;;11.80;99.90;;;;;;5051917;28;20252;-84
2024/02/22 12:15:25;;;;;;;1.02;0.80;;;11.90;99.90;;;;;;5049450;28;20690;-86
2024/02/22 12:17:52;;;;;;;3.28;1.13;;;12.00;99.90;;;;;;5047963;28;20183;-85
2024/02/22 12:20:23;;;;;;;1.80;0.90;;;12.10;99.90;;;;;;5042473;28;20190;-86
2024/02/22 12:22:51;;;;;;;3.95;0.80;;;12.20;99.90;;;;;;5050558;28;20208;-84
2024/02/22 12:25:17;;;;;;;0.90;0.40;;;12.20;99.90;;;;;;5048591;28;20529;-84
2024/02/22 12:28:05;;;;;;;0.55;0.40;;;12.40;99.90;;;;;;5048646;28;20174;-88
2024/02/22 12:30:39;;;;;;;1.00;0.73;;;12.50;99.90;;;;;;5049709;28;20275;-88
2024/02/22 12:33:08;;;;;;;2.10;0.90;;;12.40;99.90;;;;;;5053693;28;20181;-86
2024/02/22 12:35:34;;;;;;;1.10;0.80;;;12.30;99.90;;;;;;5050516;28;20174;-84
2024/02/22 12:38:00;;;;;;;1.67;0.90;;;12.20;99.90;;;;;;5050173;28;20739;-84
2024/02/22 12:40:26;;;;;;;1.65;1.02;;;12.20;99.90;;;;;;5049879;28;20216;-85
2024/02/22 12:42:55;;;;;;;3.28;0.93;;;12.10;99.90;;;;;;5049780;28;20261;-86
2024/02/22 12:45:21;;;;;;;1.15;0.68;;;12.10;99.90;;;;;;5053227;28;20209;-86
2024/02/22 12:47:47;;;;;;;1.27;0.80;;;12.20;99.90;;;;;;5043434;28;20187;-86
2024/02/22 12:50:12;;;;;;;0.90;0.60;;;12.20;99.90;;;;;;5053129;28;20186;-86
2024/02/22 12:52:38;;;;;;;1.27;0.75;;;12.20;99.90;;;;;;5051292;28;20620;-83
2024/02/22 12:55:04;;;;;;;0.88;0.60;;;12.40;99.90;;;;;;5050180;28;20208;-87